Time;durP1;ratioP1;P1;durP2;ratioP2;P2;SDS_P1;SDS_P2;PMS_P1;PMS_P2;Temp;Humidity;BMP_temperature;BMP_pressure;BME280_temperature;BME280_humidity;BME280_pressure;Samples;Min_cycle;Max_cycle;Signal;HPM_P1;HPM_P2
2022/05/01 00:01:09;;;;;;;5.40;0.63;;;17.80;99.90;;;;;;5010447;28;20226;-81
2022/05/01 00:03:42;;;;;;;4.68;1.00;;;17.80;99.90;;;;;;5006160;28;20203;-80
2022/05/01 00:06:14;;;;;;;1.88;0.80;;;17.80;99.90;;;;;;4998044;28;20273;-80
2022/05/01 00:08:45;;;;;;;2.72;0.80;;;17.80;99.90;;;;;;5009841;28;20194;-81
2022/05/01 00:11:16;;;;;;;2.50;0.70;;;17.80;99.90;;;;;;5009721;28;20202;-78
2022/05/01 00:13:48;;;;;;;2.22;0.57;;;17.90;99.90;;;;;;5012200;28;20236;-79
2022/05/01 00:16:18;;;;;;;1.55;0.40;;;17.90;99.90;;;;;;5002368;28;20569;-79
2022/05/01 00:18:51;;;;;;;2.45;1.00;;;18.00;99.90;;;;;;5004641;28;20610;-82
2022/05/01 00:21:22;;;;;;;3.47;0.73;;;18.10;99.90;;;;;;5014636;28;20220;-80
2022/05/01 00:23:52;;;;;;;3.53;0.60;;;18.30;99.90;;;;;;5005164;28;20202;-81
2022/05/01 00:26:23;;;;;;;3.67;1.45;;;18.50;99.90;;;;;;5008775;28;20253;-81
2022/05/01 00:28:54;;;;;;;1.90;0.55;;;18.70;99.90;;;;;;5019095;28;20241;-81
2022/05/01 00:31:24;;;;;;;3.28;0.60;;;19.00;99.90;;;;;;5000568;28;20195;-81
2022/05/01 00:36:55;;;;;;;2.63;1.20;;;19.20;99.90;;;;;;4953684;28;20242;-81
2022/05/01 00:39:26;;;;;;;5.13;1.05;;;19.30;99.90;;;;;;4991043;28;20203;-81
2022/05/01 00:41:56;;;;;;;2.80;0.80;;;19.30;99.90;;;;;;5005159;28;20297;-80
2022/05/01 00:44:28;;;;;;;2.25;0.60;;;19.10;99.90;;;;;;5003402;28;20580;-79
2022/05/01 00:46:59;;;;;;;1.58;0.60;;;19.00;99.90;;;;;;5012667;28;20201;-80
2022/05/01 00:49:32;;;;;;;1.48;0.60;;;19.00;99.90;;;;;;5006274;28;20195;-81
2022/05/01 00:52:08;;;;;;;2.80;0.50;;;18.90;99.90;;;;;;5014476;28;20234;-80
2022/05/01 00:54:41;;;;;;;2.67;0.70;;;18.90;99.90;;;;;;5005152;28;20195;-80
2022/05/01 00:57:12;;;;;;;2.17;0.60;;;19.00;99.90;;;;;;5011736;28;20258;-81
2022/05/01 00:59:43;;;;;;;2.65;0.75;;;19.00;99.90;;;;;;5015360;28;20191;-80
2022/05/01 01:02:14;;;;;;;2.60;0.52;;;19.00;99.90;;;;;;5002764;28;20306;-81
2022/05/01 01:04:46;;;;;;;1.55;0.40;;;19.20;99.90;;;;;;4999175;28;20613;-80
2022/05/01 01:07:18;;;;;;;0.98;0.50;;;19.40;99.90;;;;;;5018238;28;20637;-80
2022/05/01 01:09:48;;;;;;;2.67;0.70;;;19.60;99.90;;;;;;5006308;28;20195;-80
2022/05/01 01:15:30;;;;;;;1.92;0.60;;;19.80;99.90;;;;;;4996490;28;20199;-82
2022/05/01 01:18:01;;;;;;;3.25;0.70;;;19.90;99.90;;;;;;4995263;28;20655;-79
2022/05/01 01:20:33;;;;;;;3.35;0.60;;;20.00;99.90;;;;;;5001794;28;20187;-79
2022/05/01 01:23:06;;;;;;;1.50;0.47;;;20.00;99.90;;;;;;5000073;28;20207;-80
2022/05/01 01:25:37;;;;;;;1.42;0.50;;;20.00;99.90;;;;;;4999800;28;20553;-80
2022/05/01 01:28:09;;;;;;;2.40;0.70;;;20.00;99.90;;;;;;5007558;28;20199;-79
2022/05/01 01:33:28;;;;;;;4.30;0.90;;;20.20;99.90;;;;;;5014480;28;20664;-80
2022/05/01 01:36:01;;;;;;;4.07;1.00;;;20.40;99.90;;;;;;5006786;28;20610;-80
2022/05/01 01:38:34;;;;;;;2.17;0.68;;;20.50;99.90;;;;;;5005758;28;20538;-82
2022/05/01 01:41:10;;;;;;;111.90;61.60;;;20.50;99.90;;;;;;5011394;28;20225;-80
2022/05/01 01:43:43;;;;;;;65.47;35.83;;;20.60;99.90;;;;;;5013346;28;20203;-80
2022/05/01 01:46:14;;;;;;;12.07;7.05;;;20.60;99.90;;;;;;5013688;28;20206;-77
2022/05/01 01:48:46;;;;;;;12.00;6.57;;;20.60;99.90;;;;;;5011404;28;20199;-80
2022/05/01 01:51:17;;;;;;;8.57;4.47;;;20.70;99.90;;;;;;5012381;28;20780;-78
2022/05/01 01:53:52;;;;;;;3.80;1.85;;;20.80;99.90;;;;;;5012089;28;20222;-79
2022/05/01 01:56:23;;;;;;;3.88;0.85;;;21.00;99.90;;;;;;5016419;28;20282;-80
2022/05/01 01:58:54;;;;;;;3.17;0.90;;;21.00;99.90;;;;;;5009015;28;20304;-80
2022/05/01 02:01:25;;;;;;;1.73;0.85;;;21.00;99.90;;;;;;5007715;28;20214;-79
2022/05/01 02:03:55;;;;;;;1.15;0.52;;;21.00;99.90;;;;;;5020567;28;20203;-80
2022/05/01 02:06:26;;;;;;;3.80;0.93;;;21.10;99.90;;;;;;5017992;28;20195;-81
2022/05/01 02:09:00;;;;;;;2.88;1.33;;;21.20;99.90;;;;;;5019002;28;20547;-80
2022/05/01 02:11:31;;;;;;;2.83;0.60;;;21.40;99.90;;;;;;5016519;28;20233;-80
2022/05/01 02:14:02;;;;;;;2.83;0.50;;;21.40;99.90;;;;;;5012849;28;20657;-80
2022/05/01 02:16:32;;;;;;;2.38;0.95;;;21.40;99.90;;;;;;5016317;28;20658;-80
2022/05/01 02:19:03;;;;;;;1.50;0.60;;;21.40;99.90;;;;;;5008252;28;20257;-81
2022/05/01 02:21:37;;;;;;;1.48;0.70;;;21.50;99.90;;;;;;5023626;28;20217;-80
2022/05/01 02:24:12;;;;;;;2.95;0.68;;;21.50;99.90;;;;;;5014860;28;22014;-82
2022/05/01 02:26:43;;;;;;;1.58;0.60;;;21.50;99.90;;;;;;5020253;28;20685;-81
2022/05/01 02:29:14;;;;;;;2.35;0.60;;;21.60;99.90;;;;;;5021728;28;20198;-81
2022/05/01 02:31:46;;;;;;;2.00;0.70;;;21.60;99.90;;;;;;5020735;28;20205;-80
2022/05/01 02:34:16;;;;;;;1.40;0.47;;;21.70;99.90;;;;;;5017464;28;20654;-80
2022/05/01 02:36:47;;;;;;;2.17;0.65;;;21.70;99.90;;;;;;5022923;28;20249;-81
2022/05/01 02:39:19;;;;;;;2.10;0.60;;;21.70;99.90;;;;;;5017280;28;20593;-81
2022/05/01 02:41:50;;;;;;;3.25;0.73;;;21.80;99.90;;;;;;5023780;28;20257;-81
2022/05/01 02:44:21;;;;;;;3.60;1.00;;;21.70;99.90;;;;;;5020588;28;20205;-81
2022/05/01 02:46:51;;;;;;;2.90;0.68;;;21.80;99.90;;;;;;5023892;28;20566;-82
2022/05/01 02:49:22;;;;;;;4.30;0.90;;;21.80;99.90;;;;;;5026035;28;20194;-83
2022/05/01 02:51:53;;;;;;;3.80;0.80;;;21.70;99.90;;;;;;5024822;28;20231;-81
2022/05/01 02:54:27;;;;;;;2.58;0.70;;;21.70;99.90;;;;;;5027289;28;20197;-82
2022/05/01 02:56:58;;;;;;;2.78;0.60;;;21.80;99.90;;;;;;5022171;28;20202;-82
2022/05/01 02:59:28;;;;;;;4.07;0.82;;;21.80;99.90;;;;;;5016884;28;20203;-81
2022/05/01 03:02:00;;;;;;;3.33;0.70;;;21.80;99.90;;;;;;5013087;28;20269;-81
2022/05/01 03:04:31;;;;;;;1.50;0.60;;;21.90;99.90;;;;;;5005715;28;20213;-81
2022/05/01 03:07:04;;;;;;;2.33;0.80;;;21.80;99.90;;;;;;5012525;28;20198;-81
2022/05/01 03:09:38;;;;;;;3.47;0.95;;;21.80;99.90;;;;;;5010543;28;20199;-82
2022/05/01 03:12:10;;;;;;;3.70;0.60;;;21.90;99.90;;;;;;5015696;28;20201;-83
2022/05/01 03:14:40;;;;;;;2.42;0.70;;;21.90;99.90;;;;;;5022650;28;20182;-82
2022/05/01 03:17:11;;;;;;;2.67;0.75;;;22.00;99.90;;;;;;5018899;28;20210;-81
2022/05/01 03:22:28;;;;;;;3.90;0.90;;;21.90;99.90;;;;;;5018599;28;20222;-81
2022/05/01 03:25:01;;;;;;;4.70;0.90;;;21.80;99.90;;;;;;5012689;28;20220;-84
2022/05/01 03:27:32;;;;;;;4.68;0.80;;;21.80;99.90;;;;;;5017464;28;20191;-83
2022/05/01 03:30:17;;;;;;;4.35;0.80;;;21.70;99.90;;;;;;5021437;28;20206;-82
2022/05/01 03:32:48;;;;;;;4.38;0.70;;;21.80;99.90;;;;;;5018515;28;20273;-82
2022/05/01 03:35:19;;;;;;;3.05;0.80;;;21.80;99.90;;;;;;5017197;28;20284;-84
2022/05/01 03:37:50;;;;;;;2.90;0.75;;;21.80;99.90;;;;;;5014547;28;20226;-82
2022/05/01 03:40:22;;;;;;;3.22;0.75;;;21.80;99.90;;;;;;5017857;28;20270;-81
2022/05/01 03:42:54;;;;;;;5.32;0.80;;;21.70;99.90;;;;;;5021089;28;20268;-81
2022/05/01 03:45:25;;;;;;;5.57;0.70;;;21.70;99.90;;;;;;5011502;28;20655;-80
2022/05/01 03:47:55;;;;;;;2.70;0.70;;;21.70;99.90;;;;;;5016816;28;20199;-81
2022/05/01 03:50:26;;;;;;;2.72;0.60;;;21.70;99.90;;;;;;5018512;28;20928;-80
2022/05/01 03:52:57;;;;;;;3.92;0.68;;;21.60;99.90;;;;;;5021467;28;20235;-81
2022/05/01 03:55:30;;;;;;;6.07;0.98;;;21.60;99.90;;;;;;5016925;28;20203;-81
2022/05/01 03:58:01;;;;;;;3.28;0.70;;;21.60;99.90;;;;;;5022420;28;20183;-82
2022/05/01 04:00:31;;;;;;;3.40;0.80;;;21.50;99.90;;;;;;5018663;28;20223;-80
2022/05/01 04:03:02;;;;;;;6.22;0.98;;;21.50;99.90;;;;;;5017276;28;20222;-80
2022/05/01 04:05:33;;;;;;;4.80;0.90;;;21.60;99.90;;;;;;5014948;28;20202;-80
2022/05/01 04:08:04;;;;;;;3.78;0.63;;;21.60;99.90;;;;;;5018425;28;20226;-80
2022/05/01 04:10:37;;;;;;;4.03;0.80;;;21.60;99.90;;;;;;5023506;28;20202;-80
2022/05/01 04:13:08;;;;;;;2.30;0.70;;;21.70;99.90;;;;;;5017755;28;20205;-82
2022/05/01 04:15:39;;;;;;;4.90;0.65;;;21.60;99.90;;;;;;5015455;28;20254;-79
2022/05/01 04:18:10;;;;;;;3.15;0.60;;;21.70;99.90;;;;;;5020859;28;20186;-78
2022/05/01 04:20:41;;;;;;;3.40;1.08;;;21.70;99.90;;;;;;5010755;28;20565;-80
2022/05/01 04:23:12;;;;;;;2.60;0.50;;;21.60;99.90;;;;;;5013191;28;20556;-80
2022/05/01 04:25:45;;;;;;;3.97;0.60;;;21.60;99.90;;;;;;5024093;28;20237;-81
2022/05/01 04:28:16;;;;;;;6.00;0.85;;;21.60;99.90;;;;;;5021250;28;20190;-81
2022/05/01 04:30:50;;;;;;;3.95;0.80;;;21.60;99.90;;;;;;5018329;28;20206;-81
2022/05/01 04:33:21;;;;;;;5.85;0.88;;;21.70;99.90;;;;;;5015543;28;20187;-79
2022/05/01 04:35:53;;;;;;;3.95;0.90;;;21.80;99.90;;;;;;5019507;28;20199;-78
2022/05/01 04:38:25;;;;;;;4.72;0.88;;;21.80;99.90;;;;;;5018014;28;20209;-82
2022/05/01 04:40:59;;;;;;;3.30;0.70;;;21.80;99.90;;;;;;5010974;28;20643;-78
2022/05/01 04:43:31;;;;;;;3.60;0.70;;;21.70;99.90;;;;;;5018048;28;20221;-80
2022/05/01 04:46:01;;;;;;;5.50;0.88;;;21.80;99.90;;;;;;5020683;28;20193;-76
2022/05/01 04:48:32;;;;;;;3.03;0.60;;;21.70;99.90;;;;;;5018419;28;20202;-76
2022/05/01 04:51:03;;;;;;;4.50;0.70;;;21.70;99.90;;;;;;5013598;28;20223;-80
2022/05/01 04:53:34;;;;;;;4.43;0.90;;;21.90;99.90;;;;;;5013539;28;20210;-78
2022/05/01 04:58:50;;;;;;;5.45;1.10;;;22.10;99.90;;;;;;5011050;28;20202;-81
2022/05/01 05:01:20;;;;;;;7.72;0.82;;;22.00;99.90;;;;;;5013486;28;20194;-76
2022/05/01 05:03:51;;;;;;;5.15;0.80;;;22.00;99.90;;;;;;5015917;28;20301;-76
2022/05/01 05:06:23;;;;;;;4.93;0.93;;;21.90;99.90;;;;;;5006991;28;20262;-79
2022/05/01 05:11:43;;;;;;;3.92;0.70;;;21.60;99.90;;;;;;5016852;28;20996;-77
2022/05/01 05:14:13;;;;;;;1.98;0.70;;;21.60;99.90;;;;;;5008436;28;20203;-76
2022/05/01 05:16:44;;;;;;;3.33;0.60;;;21.60;99.90;;;;;;5012272;28;20218;-79
2022/05/01 05:19:15;;;;;;;4.82;0.82;;;21.60;99.90;;;;;;5008985;28;20195;-77
2022/05/01 05:21:45;;;;;;;4.22;0.80;;;21.60;99.90;;;;;;5007874;28;20201;-76
2022/05/01 05:24:16;;;;;;;6.72;0.90;;;21.50;99.90;;;;;;5014717;28;20218;-78
2022/05/01 05:26:48;;;;;;;3.30;0.70;;;21.30;99.90;;;;;;5006999;28;20190;-75
2022/05/01 05:29:19;;;;;;;6.22;0.75;;;21.20;99.90;;;;;;5025484;28;20256;-82
2022/05/01 05:31:50;;;;;;;3.35;0.70;;;21.20;99.90;;;;;;5014063;28;20198;-80
2022/05/01 05:34:20;;;;;;;3.08;0.60;;;21.10;99.90;;;;;;5010041;28;20195;-80
2022/05/01 05:36:51;;;;;;;2.25;0.63;;;21.10;99.90;;;;;;5016194;28;20224;-76
2022/05/01 05:39:22;;;;;;;1.75;0.68;;;20.90;99.90;;;;;;5016408;28;20188;-77
2022/05/01 05:41:54;;;;;;;4.25;0.90;;;20.90;99.90;;;;;;5020665;28;20644;-79
2022/05/01 05:44:25;;;;;;;3.38;0.60;;;20.70;99.90;;;;;;5021145;28;20195;-76
2022/05/01 05:46:55;;;;;;;6.60;0.70;;;20.60;99.90;;;;;;5012067;28;20190;-76
2022/05/01 05:49:26;;;;;;;3.90;0.90;;;20.50;99.90;;;;;;5012154;28;20195;-76
2022/05/01 05:51:57;;;;;;;3.65;0.80;;;20.40;99.90;;;;;;5021386;28;20632;-77
2022/05/01 05:54:27;;;;;;;2.65;0.90;;;20.40;99.90;;;;;;5018649;28;20214;-75
2022/05/01 05:57:00;;;;;;;2.53;1.10;;;20.30;99.90;;;;;;5010194;28;20210;-76
2022/05/01 05:59:31;;;;;;;2.92;0.60;;;20.20;99.90;;;;;;5022647;28;20190;-75
2022/05/01 06:02:03;;;;;;;5.55;1.02;;;20.20;99.90;;;;;;5021364;28;20190;-76
2022/05/01 06:04:33;;;;;;;3.92;0.80;;;20.10;99.90;;;;;;5018125;28;20277;-75
2022/05/01 06:07:04;;;;;;;4.30;0.93;;;20.00;99.90;;;;;;5017720;28;20253;-76
2022/05/01 06:09:36;;;;;;;3.80;0.90;;;20.00;99.90;;;;;;5021244;28;20238;-76
2022/05/01 06:12:09;;;;;;;4.63;0.95;;;20.00;99.90;;;;;;5020994;28;20190;-79
2022/05/01 06:14:40;;;;;;;3.38;0.65;;;20.10;99.90;;;;;;5023294;28;20191;-76
2022/05/01 06:17:11;;;;;;;6.35;0.90;;;20.10;99.90;;;;;;5010642;28;20257;-77
2022/05/01 06:19:41;;;;;;;3.95;0.63;;;20.10;99.90;;;;;;5022976;28;20647;-81
2022/05/01 06:22:12;;;;;;;5.65;0.90;;;20.10;99.90;;;;;;5019801;28;20210;-76
2022/05/01 06:24:43;;;;;;;3.53;0.90;;;20.00;99.90;;;;;;5015978;28;20195;-76
2022/05/01 06:27:15;;;;;;;3.35;0.95;;;20.00;99.90;;;;;;5013770;28;20203;-76
2022/05/01 06:29:46;;;;;;;4.13;0.77;;;19.90;99.90;;;;;;5009499;28;20658;-76
2022/05/01 06:32:19;;;;;;;4.28;0.90;;;19.90;99.90;;;;;;5011660;28;20273;-77
2022/05/01 06:34:52;;;;;;;5.03;0.88;;;19.80;99.90;;;;;;5018186;28;20553;-75
2022/05/01 06:37:23;;;;;;;2.55;0.70;;;19.80;99.90;;;;;;5014040;28;20253;-77
2022/05/01 06:39:54;;;;;;;3.10;0.70;;;19.80;99.90;;;;;;5020179;28;20261;-77
2022/05/01 06:42:27;;;;;;;2.28;0.70;;;19.80;99.90;;;;;;5014039;28;20288;-76
2022/05/01 06:44:57;;;;;;;4.30;0.90;;;19.70;99.90;;;;;;5009590;28;20206;-75
2022/05/01 06:47:28;;;;;;;5.25;1.00;;;19.70;99.90;;;;;;5020243;28;20198;-77
2022/05/01 06:49:58;;;;;;;3.70;0.90;;;19.70;99.90;;;;;;5013327;28;20304;-76
2022/05/01 06:52:29;;;;;;;4.57;1.00;;;19.70;99.90;;;;;;5019918;28;20230;-77
2022/05/01 06:55:01;;;;;;;3.38;0.93;;;19.60;99.90;;;;;;5018657;28;20206;-78
2022/05/01 06:57:34;;;;;;;3.90;1.20;;;19.60;99.90;;;;;;5019497;28;20191;-77
2022/05/01 07:00:06;;;;;;;3.92;0.90;;;19.60;99.90;;;;;;5015090;28;20194;-78
2022/05/01 07:02:36;;;;;;;5.47;1.25;;;19.50;99.90;;;;;;5014710;28;20574;-83
2022/05/01 07:05:08;;;;;;;3.05;1.08;;;19.50;99.90;;;;;;5008696;28;20198;-85
2022/05/01 07:07:38;;;;;;;5.45;1.25;;;19.40;99.90;;;;;;5021827;28;20214;-76
2022/05/01 07:10:10;;;;;;;2.72;0.90;;;19.40;99.90;;;;;;5019405;28;20603;-76
2022/05/01 07:12:42;;;;;;;4.40;1.10;;;19.30;99.90;;;;;;5024641;28;20191;-76
2022/05/01 07:15:14;;;;;;;4.10;1.27;;;19.30;99.90;;;;;;5019177;28;20191;-76
2022/05/01 07:17:44;;;;;;;4.75;1.25;;;19.20;99.90;;;;;;5011961;28;20572;-79
2022/05/01 07:20:15;;;;;;;4.13;1.30;;;19.20;99.90;;;;;;5018799;28;20234;-76
2022/05/01 07:22:46;;;;;;;4.72;1.27;;;19.10;99.90;;;;;;5024537;28;20336;-76
2022/05/01 07:25:17;;;;;;;4.07;1.63;;;19.10;99.90;;;;;;5020350;28;20257;-76
2022/05/01 07:27:49;;;;;;;6.80;1.63;;;19.00;99.90;;;;;;5020943;28;20186;-79
2022/05/01 07:30:20;;;;;;;4.43;1.52;;;19.00;99.90;;;;;;5021546;28;20187;-82
2022/05/01 07:32:51;;;;;;;6.97;1.58;;;18.90;99.90;;;;;;5019951;28;20191;-85
2022/05/01 07:35:21;;;;;;;6.57;1.70;;;18.90;99.90;;;;;;5016257;28;20606;-76
2022/05/01 07:37:52;;;;;;;6.93;1.80;;;18.80;99.90;;;;;;5026117;28;20201;-75
2022/05/01 07:40:24;;;;;;;3.00;1.50;;;18.80;99.90;;;;;;5022535;28;20689;-76
2022/05/01 07:42:56;;;;;;;6.00;1.40;;;18.70;99.90;;;;;;5026280;28;20214;-77
2022/05/01 07:45:27;;;;;;;6.40;1.38;;;18.70;99.90;;;;;;5022927;28;20195;-85
2022/05/01 07:47:58;;;;;;;5.68;1.58;;;18.60;99.90;;;;;;5029760;28;20186;-76
2022/05/01 07:50:29;;;;;;;5.57;1.20;;;18.60;99.90;;;;;;5021066;28;20262;-78
2022/05/01 07:53:00;;;;;;;3.47;1.20;;;18.60;99.90;;;;;;5006705;28;20702;-76
2022/05/01 07:55:30;;;;;;;3.47;1.42;;;18.50;99.90;;;;;;5013438;28;20210;-77
2022/05/01 07:58:03;;;;;;;3.92;1.20;;;18.50;99.90;;;;;;5014374;28;20202;-76
2022/05/01 08:00:34;;;;;;;3.67;1.30;;;18.50;99.90;;;;;;5014001;28;20198;-79
2022/05/01 08:05:51;;;;;;;4.32;1.20;;;18.40;99.90;;;;;;5012609;28;20206;-76
2022/05/01 08:08:22;;;;;;;2.75;1.08;;;18.30;99.90;;;;;;5013914;28;20195;-76
2022/05/01 08:10:52;;;;;;;6.32;2.10;;;18.30;99.90;;;;;;5013929;28;20246;-76
2022/05/01 08:13:25;;;;;;;3.63;1.50;;;18.30;99.90;;;;;;5012734;28;20195;-76
2022/05/01 08:15:56;;;;;;;4.18;1.50;;;18.20;99.90;;;;;;5008451;28;20195;-82
2022/05/01 08:21:13;;;;;;;6.88;1.70;;;18.10;99.90;;;;;;5011750;28;20205;-76
2022/05/01 08:23:44;;;;;;;4.93;1.48;;;18.00;99.90;;;;;;5013813;28;20281;-76
2022/05/01 08:26:17;;;;;;;4.75;1.60;;;18.00;99.90;;;;;;5017226;28;20194;-79
2022/05/01 08:28:53;;;;;;;5.13;1.70;;;18.00;99.90;;;;;;5006854;28;20277;-79
2022/05/01 08:31:24;;;;;;;5.30;1.80;;;18.00;99.90;;;;;;5009831;28;20250;-77
2022/05/01 08:33:55;;;;;;;3.90;1.60;;;17.90;99.90;;;;;;4998176;28;20192;-76
2022/05/01 08:36:26;;;;;;;6.18;2.00;;;17.90;99.90;;;;;;5007428;28;20269;-77
2022/05/01 08:38:57;;;;;;;5.32;2.13;;;17.90;99.90;;;;;;5014488;28;20313;-78
2022/05/01 08:41:31;;;;;;;4.97;1.95;;;17.90;99.90;;;;;;5014951;28;20260;-76
2022/05/01 08:44:05;;;;;;;7.28;2.33;;;17.80;99.90;;;;;;5015846;28;20217;-76
2022/05/01 08:47:02;;;;;;;8.23;2.42;;;17.80;99.90;;;;;;5015104;28;20216;-80
2022/05/01 08:49:36;;;;;;;8.40;2.63;;;17.80;99.90;;;;;;5009191;28;20200;-76
2022/05/01 08:52:10;;;;;;;8.38;2.75;;;17.70;99.90;;;;;;5013010;28;20292;-75
2022/05/01 08:54:41;;;;;;;10.55;3.70;;;17.70;99.90;;;;;;5014803;28;20198;-75
2022/05/01 08:57:13;;;;;;;7.50;4.32;;;17.70;99.90;;;;;;5023196;28;20285;-75
2022/05/01 08:59:46;;;;;;;12.95;7.63;;;17.70;99.90;;;;;;5015315;28;20200;-75
2022/05/01 09:02:17;;;;;;;10.57;6.40;;;17.70;99.90;;;;;;5008148;28;20238;-75
2022/05/01 09:04:48;;;;;;;9.50;3.90;;;17.70;99.90;;;;;;5013745;28;20219;-80
2022/05/01 09:07:19;;;;;;;9.70;3.70;;;17.60;99.90;;;;;;5017929;28;20205;-77
2022/05/01 09:09:51;;;;;;;8.70;3.00;;;17.60;99.90;;;;;;5007665;28;20195;-76
2022/05/01 09:15:11;;;;;;;7.18;2.97;;;17.50;99.90;;;;;;5001156;28;20693;-76
2022/05/01 09:17:42;;;;;;;6.90;3.00;;;17.50;99.90;;;;;;5009855;28;20217;-77
2022/05/01 09:20:14;;;;;;;9.25;3.00;;;17.40;99.90;;;;;;5011539;28;20195;-79
2022/05/01 09:22:52;;;;;;;10.55;2.92;;;17.40;99.90;;;;;;5017661;28;20233;-74
2022/05/01 09:25:26;;;;;;;9.50;3.40;;;17.40;99.90;;;;;;5020007;28;20711;-75
2022/05/01 09:27:59;;;;;;;11.30;4.30;;;17.40;99.90;;;;;;5010398;28;20203;-76
2022/05/01 09:30:39;;;;;;;11.65;4.65;;;17.40;99.90;;;;;;5009868;28;20194;-74
2022/05/01 09:33:20;;;;;;;9.45;4.50;;;17.30;99.90;;;;;;5011855;28;20233;-75
2022/05/01 09:35:52;;;;;;;9.27;3.78;;;17.30;99.90;;;;;;5011291;28;20207;-76
2022/05/01 09:38:23;;;;;;;10.02;4.28;;;17.30;99.90;;;;;;5007027;28;20206;-75
2022/05/01 09:40:56;;;;;;;10.45;4.18;;;17.40;99.90;;;;;;5007522;28;20258;-76
2022/05/01 09:43:41;;;;;;;9.80;4.00;;;17.40;99.90;;;;;;5005173;28;20246;-75
2022/05/01 09:46:21;;;;;;;12.05;5.35;;;17.30;99.90;;;;;;5011230;28;20249;-76
2022/05/01 09:49:02;;;;;;;18.50;8.98;;;17.30;99.90;;;;;;5010860;28;20985;-78
2022/05/01 09:51:34;;;;;;;14.30;4.60;;;17.30;99.90;;;;;;5020284;28;20234;-75
2022/05/01 09:54:05;;;;;;;10.35;4.65;;;17.20;99.90;;;;;;5012886;28;20198;-76
2022/05/01 09:56:47;;;;;;;8.43;4.40;;;17.20;99.90;;;;;;5014761;28;20427;-75
2022/05/01 09:59:18;;;;;;;11.68;5.10;;;17.20;99.90;;;;;;5013766;28;20205;-75
2022/05/01 10:02:02;;;;;;;11.15;4.57;;;17.20;99.90;;;;;;5010560;28;20191;-75
2022/05/01 10:04:33;;;;;;;9.88;3.97;;;17.20;99.90;;;;;;5012627;28;20219;-75
2022/05/01 10:07:05;;;;;;;8.48;4.07;;;17.20;99.90;;;;;;5012302;28;20198;-75
2022/05/01 10:09:37;;;;;;;8.77;5.18;;;17.20;99.90;;;;;;5006450;28;20199;-75
2022/05/01 10:12:10;;;;;;;10.45;4.20;;;17.10;99.90;;;;;;5013852;28;20202;-75
2022/05/01 10:14:40;;;;;;;9.15;3.95;;;17.10;99.90;;;;;;5011375;28;20280;-75
2022/05/01 10:17:13;;;;;;;9.07;4.57;;;17.00;99.90;;;;;;5012412;28;20209;-75
2022/05/01 10:19:44;;;;;;;9.10;4.63;;;17.00;99.90;;;;;;5007601;28;20190;-75
2022/05/01 10:22:15;;;;;;;9.07;4.18;;;17.00;99.90;;;;;;5015368;28;20218;-75
2022/05/01 10:24:46;;;;;;;7.88;3.50;;;17.00;99.90;;;;;;5020267;28;20265;-76
2022/05/01 10:27:27;;;;;;;8.43;4.00;;;17.00;99.90;;;;;;5009381;28;20210;-75
2022/05/01 10:33:20;;;;;;;10.70;4.55;;;16.90;99.90;;;;;;5008017;28;20194;-80
2022/05/01 10:36:12;;;;;;;9.90;4.53;;;16.90;99.90;;;;;;5003642;28;20195;-76
2022/05/01 10:38:58;;;;;;;7.90;4.50;;;16.90;99.90;;;;;;5013587;28;20286;-75
2022/05/01 10:41:29;;;;;;;10.02;4.35;;;16.90;99.90;;;;;;5019218;28;20201;-76
2022/05/01 10:44:02;;;;;;;8.75;4.15;;;16.90;99.90;;;;;;5019165;28;20272;-75
2022/05/01 10:46:34;;;;;;;9.57;4.30;;;16.90;99.90;;;;;;5015532;28;20198;-75
2022/05/01 10:49:29;;;;;;;9.88;4.57;;;16.90;99.90;;;;;;5020098;28;20198;-75
2022/05/01 10:52:17;;;;;;;8.38;4.40;;;16.90;99.90;;;;;;5015241;28;20237;-75
2022/05/01 10:54:54;;;;;;;9.02;4.50;;;16.90;99.90;;;;;;5020885;28;20201;-81
2022/05/01 10:57:25;;;;;;;9.25;4.00;;;16.90;99.90;;;;;;5016410;28;20190;-75
2022/05/01 11:00:10;;;;;;;8.60;4.00;;;16.90;99.90;;;;;;5022276;28;20199;-78
2022/05/01 11:02:43;;;;;;;9.77;4.40;;;16.80;99.90;;;;;;5018446;28;20680;-75
2022/05/01 11:05:45;;;;;;;9.77;4.43;;;16.80;99.90;;;;;;5020667;28;20585;-76
2022/05/01 11:08:21;;;;;;;7.60;4.07;;;16.80;99.90;;;;;;5019622;28;20195;-76
2022/05/01 11:10:53;;;;;;;9.95;4.28;;;16.70;99.90;;;;;;5011519;28;20663;-75
2022/05/01 11:13:26;;;;;;;15.13;4.97;;;16.70;99.90;;;;;;5014370;28;20305;-75
2022/05/01 11:15:57;;;;;;;10.50;4.38;;;16.70;99.90;;;;;;5019837;28;20232;-75
2022/05/01 11:18:36;;;;;;;7.43;4.20;;;16.70;99.90;;;;;;5019734;28;20202;-76
2022/05/01 11:21:39;;;;;;;9.35;4.47;;;16.70;99.90;;;;;;5023868;28;20731;-76
2022/05/01 11:24:13;;;;;;;9.20;4.13;;;16.70;99.90;;;;;;4980070;28;20586;-76
2022/05/01 11:27:16;;;;;;;10.98;4.35;;;16.70;99.90;;;;;;5020094;28;20213;-78
2022/05/01 11:30:22;;;;;;;9.27;3.80;;;16.70;99.90;;;;;;5014597;28;20484;-75
2022/05/01 11:32:53;;;;;;;9.55;4.40;;;16.70;99.90;;;;;;5016480;28;20199;-75
2022/05/01 11:35:44;;;;;;;8.27;4.20;;;16.70;99.90;;;;;;5021100;28;20198;-75
2022/05/01 11:38:16;;;;;;;11.30;4.13;;;16.60;99.90;;;;;;5018486;28;20651;-77
2022/05/01 11:40:57;;;;;;;8.63;4.15;;;16.70;99.90;;;;;;5019571;28;20198;-75
2022/05/01 11:43:28;;;;;;;9.18;4.22;;;16.70;99.90;;;;;;5016334;28;20244;-75
2022/05/01 11:46:01;;;;;;;8.50;3.97;;;16.70;99.90;;;;;;5017988;28;20261;-75
2022/05/01 11:48:32;;;;;;;7.60;3.50;;;16.70;99.90;;;;;;5011459;28;20292;-75
2022/05/01 11:51:03;;;;;;;6.88;3.42;;;16.70;99.90;;;;;;5020805;28;20709;-75
2022/05/01 11:53:37;;;;;;;11.13;4.65;;;16.70;99.90;;;;;;5016753;28;20198;-76
2022/05/01 12:04:37;;;;;;;12.50;4.53;;;16.70;99.90;;;;;;5014799;28;20234;-75
2022/05/01 12:07:11;;;;;;;11.90;4.57;;;16.70;99.90;;;;;;5017619;28;20194;-75
2022/05/01 12:09:45;;;;;;;8.80;4.15;;;16.70;99.90;;;;;;5021365;28;20204;-75
2022/05/01 12:12:17;;;;;;;12.35;4.70;;;16.70;99.90;;;;;;5018217;28;20194;-76
2022/05/01 12:14:48;;;;;;;12.32;4.35;;;16.70;99.90;;;;;;5014133;28;20195;-75
2022/05/01 12:17:21;;;;;;;11.30;4.85;;;16.60;99.90;;;;;;5016169;28;20222;-76
2022/05/01 12:19:54;;;;;;;11.00;4.80;;;16.60;99.90;;;;;;5014885;28;20685;-75
2022/05/01 12:22:30;;;;;;;10.02;4.38;;;16.60;99.90;;;;;;5014751;28;20245;-76
2022/05/01 12:25:03;;;;;;;10.77;4.75;;;16.60;99.90;;;;;;5021904;28;20685;-75
2022/05/01 12:27:34;;;;;;;12.05;4.88;;;16.60;99.90;;;;;;5023506;28;20209;-75
2022/05/01 12:30:06;;;;;;;9.75;4.45;;;16.60;99.90;;;;;;5015244;28;20650;-75
2022/05/01 12:32:37;;;;;;;10.52;4.68;;;16.60;99.90;;;;;;5013505;28;20223;-76
2022/05/01 12:35:09;;;;;;;7.28;4.28;;;16.50;99.90;;;;;;5014356;28;20194;-77
2022/05/01 12:37:40;;;;;;;12.07;4.63;;;16.50;99.90;;;;;;5018351;28;20218;-74
2022/05/01 12:40:14;;;;;;;8.40;4.63;;;16.50;99.90;;;;;;5021570;28;20199;-75
2022/05/01 12:45:39;;;;;;;8.13;4.70;;;16.50;99.90;;;;;;5015458;28;20221;-75
2022/05/01 12:48:11;;;;;;;7.45;4.22;;;16.50;99.90;;;;;;5011805;28;20197;-75
2022/05/01 12:50:43;;;;;;;9.40;4.80;;;16.50;99.90;;;;;;5019175;28;20223;-75
2022/05/01 12:53:27;;;;;;;10.23;4.60;;;16.40;99.90;;;;;;5020502;28;20584;-75
2022/05/01 12:56:02;;;;;;;14.45;5.80;;;16.40;99.90;;;;;;5015653;28;20199;-75
2022/05/01 12:58:34;;;;;;;9.80;5.80;;;16.40;99.90;;;;;;5020943;28;20202;-75
2022/05/01 13:01:07;;;;;;;11.23;5.30;;;16.40;99.90;;;;;;5016452;28;20571;-75
2022/05/01 13:03:38;;;;;;;11.15;5.70;;;16.40;99.90;;;;;;5018439;28;20187;-76
2022/05/01 13:06:10;;;;;;;8.90;5.50;;;16.40;99.90;;;;;;5013952;28;20224;-75
2022/05/01 13:08:41;;;;;;;11.40;5.43;;;16.40;99.90;;;;;;5019333;28;20199;-75
2022/05/01 13:11:23;;;;;;;9.88;5.18;;;16.30;99.90;;;;;;5010258;28;20199;-75
2022/05/01 13:13:56;;;;;;;9.55;4.82;;;16.40;99.90;;;;;;5017821;28;20607;-75
2022/05/01 13:16:40;;;;;;;11.13;5.03;;;16.30;99.90;;;;;;5013325;28;20203;-76
2022/05/01 13:19:12;;;;;;;11.32;4.68;;;16.30;99.90;;;;;;5009546;28;20201;-75
2022/05/01 13:21:44;;;;;;;11.75;5.15;;;16.30;99.90;;;;;;5020928;28;20186;-76
2022/05/01 13:24:16;;;;;;;10.52;4.80;;;16.30;99.90;;;;;;5013401;28;20245;-76
2022/05/01 13:26:49;;;;;;;9.82;4.82;;;16.30;99.90;;;;;;5020664;28;20622;-75
2022/05/01 13:29:20;;;;;;;11.40;4.97;;;16.30;99.90;;;;;;5015777;28;20194;-76
2022/05/01 13:31:51;;;;;;;11.38;5.00;;;16.30;99.90;;;;;;5018424;28;20199;-75
2022/05/01 13:34:23;;;;;;;11.85;4.88;;;16.30;99.90;;;;;;5011835;28;20260;-76
2022/05/01 13:36:54;;;;;;;12.98;4.57;;;16.30;99.90;;;;;;5010718;28;20195;-75
2022/05/01 13:44:44;;;;;;;10.07;4.45;;;16.30;99.90;;;;;;5020180;28;20202;-79
2022/05/01 13:45:05;;;;;;;10.93;4.20;;;16.20;99.90;;;;;;5016522;28;20276;-75
2022/05/01 13:47:36;;;;;;;10.40;4.22;;;16.20;99.90;;;;;;5020289;28;20192;-76
2022/05/01 13:50:08;;;;;;;8.48;4.38;;;16.10;99.90;;;;;;5016399;28;20261;-75
2022/05/01 13:52:38;;;;;;;7.45;4.30;;;16.10;99.90;;;;;;5013565;28;20225;-76
2022/05/01 13:55:10;;;;;;;10.70;4.13;;;16.10;99.90;;;;;;5019716;28;20264;-75
2022/05/01 13:57:43;;;;;;;7.93;4.13;;;16.00;99.90;;;;;;5020758;28;20202;-76